Time;durP1;ratioP1;P1;durP2;ratioP2;P2;SDS_P1;SDS_P2;PMS_P1;PMS_P2;Temp;Humidity;BMP_temperature;BMP_pressure;BME280_temperature;BME280_humidity;BME280_pressure;Samples;Min_cycle;Max_cycle;Signal;HPM_P1;HPM_P2
2021/07/19 06:21:34;;;;;;;;;;;;;;;25.77;59.69;99865.97;1793843;80;20088;-66
2021/07/19 07:06:50;;;;;;;;;;;;;;;26.29;57.31;99987.78;1519046;85;20280;-68
2021/07/19 07:11:43;;;;;;;9.35;5.40;;;;;;;26.47;57.91;100024.00;1516183;85;25081;-60
2021/07/19 07:14:10;;;;;;;9.85;5.72;;;;;;;26.40;57.22;100031.53;1500276;88;21670;-60
2021/07/19 07:16:36;;;;;;;8.75;5.47;;;;;;;26.41;57.10;100030.98;1482754;88;21788;-61
2021/07/19 07:19:04;;;;;;;7.97;6.05;;;;;;;26.39;56.97;100025.03;1485118;87;21707;-60
2021/07/19 07:21:31;;;;;;;10.10;5.85;;;;;;;26.39;56.87;100026.39;1463270;87;21477;-60
2021/07/19 07:23:58;;;;;;;12.03;6.65;;;;;;;26.37;56.82;100035.31;1489356;87;21463;-60
2021/07/19 07:26:30;;;;;;;6.70;6.05;;;;;;;26.35;56.76;100046.41;1464309;88;21501;-61
2021/07/19 07:28:55;;;;;;;12.85;6.03;;;;;;;26.35;56.64;100053.20;1483767;87;21692;-62
2021/07/19 07:31:28;;;;;;;8.45;6.40;;;;;;;26.33;56.70;100041.81;1491309;87;21529;-61
2021/07/19 07:33:58;;;;;;;13.83;6.40;;;;;;;26.34;56.63;100031.23;1478554;88;21523;-61
2021/07/19 07:36:26;;;;;;;16.37;5.65;;;;;;;26.33;56.59;100020.11;1480884;88;22498;-62
2021/07/19 07:38:53;;;;;;;16.32;6.00;;;;;;;26.32;56.59;100026.05;1468316;87;21470;-62
2021/07/19 07:41:20;;;;;;;7.00;5.47;;;;;;;26.35;56.61;100034.20;1476054;88;21527;-61
2021/07/19 07:43:47;;;;;;;15.70;6.35;;;;;;;26.36;56.60;100038.58;1464010;89;21537;-64
2021/07/19 07:46:14;;;;;;;9.60;5.65;;;;;;;26.39;56.67;100042.12;1466968;89;22655;-63
2021/07/19 07:48:41;;;;;;;13.70;6.33;;;;;;;26.42;56.73;100040.78;1452164;89;22478;-63
2021/07/19 07:51:09;;;;;;;9.58;6.15;;;;;;;26.44;56.69;100038.60;1484855;89;22628;-63
2021/07/19 07:53:37;;;;;;;8.90;6.35;;;;;;;26.46;56.72;100028.31;1453288;89;21637;-64
2021/07/19 07:56:04;;;;;;;13.13;6.30;;;;;;;26.48;56.68;100024.80;1469657;89;21590;-63
2021/07/19 07:58:31;;;;;;;10.25;6.50;;;;;;;26.50;56.67;100028.92;1470903;89;21485;-63
2021/07/19 08:00:57;;;;;;;13.00;5.95;;;;;;;26.53;56.66;100029.76;1467447;89;21514;-62
2021/07/19 08:03:24;;;;;;;17.12;5.87;;;;;;;26.55;56.68;100026.22;1449349;89;21618;-62
2021/07/19 08:05:50;;;;;;;10.50;6.05;;;;;;;26.57;56.62;100012.40;1460371;89;21478;-69
2021/07/19 08:08:16;;;;;;;9.93;6.17;;;;;;;26.60;56.63;100001.56;1467791;89;21463;-63
2021/07/19 08:10:43;;;;;;;7.10;4.97;;;;;;;26.63;56.58;99991.53;1461822;89;21590;-64
2021/07/19 08:13:09;;;;;;;10.13;6.00;;;;;;;26.63;56.55;99996.41;1458546;90;22469;-64
2021/07/19 08:15:39;;;;;;;12.30;6.58;;;;;;;26.66;56.54;99997.78;1458422;90;22588;-63
2021/07/19 08:18:05;;;;;;;16.85;5.67;;;;;;;26.68;56.49;100001.06;1434914;90;21485;-64
2021/07/19 08:20:31;;;;;;;23.47;6.33;;;;;;;26.69;56.52;99998.61;1448759;90;21574;-65
2021/07/19 08:22:58;;;;;;;10.32;5.67;;;;;;;26.71;56.52;100003.25;1442352;90;21456;-63
2021/07/19 08:25:25;;;;;;;8.80;6.17;;;;;;;26.72;56.55;99996.73;1443950;90;22403;-64
2021/07/19 08:27:51;;;;;;;9.23;5.53;;;;;;;26.73;56.49;99992.41;1445121;90;21666;-65
2021/07/19 08:30:19;;;;;;;8.50;5.62;;;;;;;26.75;56.50;99993.48;1465093;90;21515;-62
2021/07/19 08:35:32;;;;;;;11.40;5.83;;;;;;;26.77;56.37;99992.13;1448108;90;21428;-64
2021/07/19 08:38:00;;;;;;;14.38;5.53;;;;;;;26.79;56.31;99991.88;1433648;90;21604;-64
2021/07/19 08:40:27;;;;;;;8.18;5.33;;;;;;;26.80;56.32;99986.72;1453396;90;21590;-65
2021/07/19 08:42:58;;;;;;;13.22;5.50;;;;;;;26.81;56.30;99986.98;1458262;90;21566;-63
2021/07/19 08:45:23;;;;;;;14.58;5.58;;;;;;;26.82;56.31;99994.61;1446094;90;21582;-63
2021/07/19 08:47:52;;;;;;;17.77;8.05;;;;;;;26.81;56.34;99982.91;1452789;90;21383;-62
2021/07/19 08:50:22;;;;;;;10.70;6.47;;;;;;;26.82;56.25;99989.99;1451522;89;21708;-62
2021/07/19 08:52:54;;;;;;;12.73;5.55;;;;;;;26.82;56.25;99990.55;1444281;89;21729;-65
2021/07/19 08:55:24;;;;;;;13.53;6.33;;;;;;;26.79;56.21;99985.09;1450851;90;21457;-65
2021/07/19 08:57:52;;;;;;;17.30;6.67;;;;;;;26.84;56.11;99993.23;1453222;90;21464;-67
2021/07/19 09:03:55;;;;;;;12.65;6.03;;;;;;;26.83;56.09;100001.66;1493450;87;21507;-67
2021/07/19 09:06:22;;;;;;;26.07;8.05;;;;;;;26.83;56.10;100014.69;1496840;87;21596;-63
2021/07/19 09:08:53;;;;;;;9.18;6.42;;;;;;;26.81;56.12;100014.13;1512500;87;22365;-67
2021/07/19 09:11:23;;;;;;;28.27;7.80;;;;;;;26.82;56.12;100014.42;1511217;87;21603;-63
2021/07/19 09:14:07;;;;;;;29.10;8.27;;;;;;;26.81;56.21;100014.13;1488422;87;22454;-61
2021/07/19 09:16:46;;;;;;;13.05;7.40;;;;;;;26.81;56.33;100018.20;1493053;87;21448;-61
2021/07/19 09:19:23;;;;;;;11.00;7.00;;;;;;;26.80;56.44;100017.94;1491180;87;21544;-63
2021/07/19 09:21:58;;;;;;;22.55;8.33;;;;;;;26.82;56.48;100025.83;1497481;87;21566;-59
2021/07/19 09:24:30;;;;;;;15.40;7.97;;;;;;;26.81;56.51;100022.27;1492840;87;21607;-62
2021/07/19 09:26:57;;;;;;;14.28;8.65;;;;;;;26.81;56.67;100027.70;1496687;87;21695;-62
2021/07/19 09:29:30;;;;;;;10.45;8.50;;;;;;;26.74;56.60;100028.50;1500609;87;21492;-66
2021/07/19 09:32:00;;;;;;;15.18;8.23;;;;;;;26.66;56.62;100024.92;1508328;87;21702;-62
2021/07/19 09:34:31;;;;;;;13.62;8.33;;;;;;;26.59;56.90;100018.39;1490280;87;21499;-62
2021/07/19 09:37:07;;;;;;;15.45;8.45;;;;;;;26.53;57.20;100013.47;1499701;87;21662;-59
2021/07/19 09:39:49;;;;;;;14.35;7.87;;;;;;;26.54;57.41;100015.64;1488291;87;21515;-63
2021/07/19 09:42:19;;;;;;;14.68;7.90;;;;;;;26.54;57.42;100015.09;1493757;87;21632;-61
2021/07/19 09:44:57;;;;;;;11.18;8.50;;;;;;;26.54;57.47;100012.93;1493607;87;21411;-63
2021/07/19 09:47:40;;;;;;;11.68;8.00;;;;;;;26.55;57.56;100014.00;1480967;87;21692;-60
2021/07/19 09:50:14;;;;;;;12.93;8.90;;;;;;;26.54;57.59;100011.03;1480490;87;21485;-64
2021/07/19 09:52:44;;;;;;;9.13;7.62;;;;;;;26.47;57.45;100013.14;1497496;87;21448;-60
2021/07/19 09:55:26;;;;;;;9.25;7.33;;;;;;;26.46;57.52;100003.34;1509249;87;21536;-64
2021/07/19 09:58:01;;;;;;;9.08;8.03;;;;;;;26.51;57.57;100002.05;1487820;87;21507;-64
2021/07/19 10:00:30;;;;;;;10.32;9.25;;;;;;;26.54;57.64;100000.72;1498103;87;21559;-65
2021/07/19 10:02:58;;;;;;;16.48;8.78;;;;;;;26.57;57.62;100005.61;1487819;86;21506;-70
2021/07/19 10:05:33;;;;;;;12.78;8.35;;;;;;;26.62;57.63;100002.13;1475564;86;21552;-65
2021/07/19 10:08:00;;;;;;;13.30;8.60;;;;;;;26.65;57.69;100012.45;1495505;86;21521;-62
2021/07/19 10:10:37;;;;;;;11.38;7.85;;;;;;;26.68;57.68;100014.09;1487200;85;21695;-63
2021/07/19 10:13:07;;;;;;;9.23;8.28;;;;;;;26.70;57.56;100015.16;1496950;86;21625;-62
2021/07/19 10:15:36;;;;;;;11.68;8.40;;;;;;;26.71;57.55;100007.31;1491191;86;21471;-65
2021/07/19 10:18:11;;;;;;;10.95;7.90;;;;;;;26.74;57.66;100016.28;1488817;86;22424;-65
2021/07/19 10:20:40;;;;;;;14.47;9.30;;;;;;;26.74;57.58;100014.38;1507092;86;21638;-64
2021/07/19 10:23:11;;;;;;;12.75;8.50;;;;;;;26.76;57.55;100014.13;1483057;86;22579;-63
2021/07/19 10:25:39;;;;;;;14.18;8.18;;;;;;;26.77;57.52;100013.05;1490439;86;21419;-61
2021/07/19 10:28:06;;;;;;;19.27;9.95;;;;;;;26.77;57.55;99998.11;1498088;86;21522;-60
2021/07/19 10:30:35;;;;;;;10.30;9.25;;;;;;;26.77;57.48;99994.03;1497552;86;21505;-61
2021/07/19 10:33:03;;;;;;;10.82;7.80;;;;;;;26.79;57.44;99994.59;1504812;86;22262;-64
2021/07/19 10:35:30;;;;;;;13.05;8.60;;;;;;;26.83;57.50;100002.47;1482308;86;22506;-62
2021/07/19 10:38:22;;;;;;;15.95;8.45;;;;;;;26.88;57.43;99998.42;1506641;86;21639;-62
2021/07/19 10:40:56;;;;;;;15.63;8.40;;;;;;;26.91;57.35;99996.53;1458497;89;21478;-64
2021/07/19 10:43:25;;;;;;;14.15;9.30;;;;;;;26.95;57.26;99988.13;1460280;89;22677;-64
2021/07/19 10:45:54;;;;;;;15.00;9.88;;;;;;;27.00;57.27;99988.14;1478858;89;21583;-62
2021/07/19 10:48:32;;;;;;;15.65;10.03;;;;;;;27.03;57.19;99981.91;1461424;89;21441;-63
2021/07/19 10:51:18;;;;;;;9.48;8.48;;;;;;;27.01;57.02;99988.95;1456690;89;21567;-63
2021/07/19 10:53:45;;;;;;;13.48;9.05;;;;;;;26.95;56.90;99982.69;1468290;88;21786;-63
2021/07/19 10:56:14;;;;;;;15.93;9.08;;;;;;;26.87;56.81;99991.34;1472510;89;21877;-64
2021/07/19 10:58:47;;;;;;;11.50;9.33;;;;;;;26.82;56.81;99987.83;1440692;89;21655;-64
2021/07/19 11:01:30;;;;;;;12.50;9.70;;;;;;;26.77;56.85;99993.49;1463808;89;21581;-64
2021/07/19 11:03:59;;;;;;;12.73;8.78;;;;;;;26.74;56.83;99996.73;1470813;89;21776;-61
2021/07/19 11:06:36;;;;;;;14.00;9.00;;;;;;;26.70;56.96;99997.52;1476792;89;21536;-62
2021/07/19 11:09:06;;;;;;;10.28;9.25;;;;;;;26.67;56.91;99998.05;1470589;89;21515;-61
2021/07/19 11:11:40;;;;;;;17.48;8.60;;;;;;;26.65;56.83;99997.52;1479203;89;21693;-62
2021/07/19 11:14:12;;;;;;;12.10;9.45;;;;;;;26.66;56.78;100003.22;1454886;89;21485;-64
2021/07/19 11:16:50;;;;;;;13.38;9.88;;;;;;;26.67;57.09;100004.32;1444969;89;21501;-63
2021/07/19 11:19:29;;;;;;;12.20;9.25;;;;;;;26.66;57.24;100004.03;1453192;89;21507;-65
2021/07/19 11:22:06;;;;;;;11.15;9.10;;;;;;;26.67;57.11;99998.05;1458681;89;21508;-63
2021/07/19 11:24:43;;;;;;;11.10;8.60;;;;;;;26.67;57.20;100002.97;1469198;89;21426;-65
2021/07/19 11:27:11;;;;;;;12.70;7.80;;;;;;;26.68;56.93;100007.84;1467924;89;21790;-66
2021/07/19 11:29:41;;;;;;;11.03;8.80;;;;;;;26.67;56.92;100007.55;1434921;89;21596;-63
2021/07/19 11:32:29;;;;;;;19.60;9.83;;;;;;;26.65;57.05;100012.45;1471663;89;21618;-63
2021/07/19 11:35:10;;;;;;;12.70;9.40;;;;;;;26.63;57.10;100014.60;1476745;89;22669;-64
2021/07/19 11:37:41;;;;;;;19.75;8.15;;;;;;;26.61;57.02;100010.78;1462378;89;21537;-64
2021/07/19 11:40:10;;;;;;;13.78;8.35;;;;;;;26.59;56.99;100010.80;1468854;89;22540;-64
2021/07/19 11:42:41;;;;;;;15.25;8.23;;;;;;;26.59;56.90;100016.22;1462156;89;21799;-63
2021/07/19 11:45:18;;;;;;;11.48;9.38;;;;;;;26.54;56.94;100005.59;1433755;89;22459;-61
2021/07/19 11:47:55;;;;;;;13.38;8.75;;;;;;;26.52;57.09;99996.09;1458861;89;21583;-62
2021/07/19 11:50:25;;;;;;;19.17;8.05;;;;;;;26.53;57.08;99994.48;1445292;89;21940;-62
2021/07/19 11:52:54;;;;;;;12.55;8.03;;;;;;;26.54;56.96;99996.10;1460695;89;21572;-62
2021/07/19 11:55:24;;;;;;;11.93;9.18;;;;;;;26.54;57.12;99996.10;1466290;89;21659;-62
2021/07/19 11:58:00;;;;;;;11.75;8.33;;;;;;;26.56;57.06;99994.50;1463848;89;22526;-62
2021/07/19 12:00:32;;;;;;;14.85;10.72;;;;;;;26.58;57.05;99995.58;1461959;89;22643;-62
2021/07/19 12:03:12;;;;;;;11.15;8.78;;;;;;;26.56;57.11;99995.85;1467860;89;21504;-59
2021/07/19 12:05:55;;;;;;;11.05;8.70;;;;;;;26.60;57.00;100000.20;1466610;89;21593;-63
2021/07/19 12:08:31;;;;;;;14.33;9.43;;;;;;;26.61;56.79;99995.04;1459970;89;21453;-65
2021/07/19 12:11:22;;;;;;;13.65;8.50;;;;;;;26.58;56.78;99995.58;1459256;89;21676;-63
2021/07/19 12:13:49;;;;;;;11.80;9.45;;;;;;;26.53;56.81;99995.84;1392074;94;21518;-63
2021/07/19 12:16:17;;;;;;;11.40;8.25;;;;;;;26.49;56.92;99987.89;1388745;93;21584;-62
2021/07/19 12:18:49;;;;;;;11.00;7.83;;;;;;;26.46;56.77;99987.07;1391632;94;21598;-64
2021/07/19 12:21:23;;;;;;;12.70;7.72;;;;;;;26.47;56.86;99993.31;1389837;94;22435;-65
2021/07/19 12:23:59;;;;;;;13.80;8.25;;;;;;;26.48;56.62;99983.56;1385932;93;21642;-63
2021/07/19 12:26:37;;;;;;;13.93;8.60;;;;;;;26.48;56.59;99986.82;1394555;94;21569;-65
2021/07/19 12:29:16;;;;;;;10.30;8.33;;;;;;;26.47;56.85;99986.01;1395201;94;21554;-69
2021/07/19 12:31:55;;;;;;;9.50;8.20;;;;;;;26.48;56.83;99988.98;1402471;94;22442;-68
2021/07/19 12:34:27;;;;;;;10.90;8.23;;;;;;;26.47;57.08;99983.30;1382344;94;22560;-64
2021/07/19 12:36:57;;;;;;;10.05;8.28;;;;;;;26.48;56.91;99982.20;1406212;94;21591;-64
2021/07/19 12:39:36;;;;;;;11.85;9.40;;;;;;;26.49;56.85;99982.47;1387835;93;21532;-65
2021/07/19 12:42:11;;;;;;;12.15;8.50;;;;;;;26.50;56.97;99988.77;1402702;92;21854;-62
2021/07/19 12:44:39;;;;;;;15.30;8.13;;;;;;;26.50;56.84;99986.87;1392347;94;22522;-62
2021/07/19 12:47:06;;;;;;;16.50;8.00;;;;;;;26.51;56.88;99987.68;1348911;95;21716;-60
2021/07/19 12:49:39;;;;;;;13.03;8.03;;;;;;;26.52;56.88;99975.19;1353492;95;21725;-62
2021/07/19 12:52:15;;;;;;;12.88;8.23;;;;;;;26.55;56.80;99981.44;1367125;96;21614;-61
2021/07/19 12:54:57;;;;;;;10.82;7.58;;;;;;;26.58;56.65;99973.86;1362409;96;22473;-61
2021/07/19 12:57:25;;;;;;;10.50;6.95;;;;;;;26.57;56.66;99973.59;1352578;95;21704;-63
2021/07/19 12:59:53;;;;;;;8.38;6.72;;;;;;;26.59;56.45;99972.80;1348648;96;21719;-61
2021/07/19 13:02:21;;;;;;;12.03;7.58;;;;;;;26.60;56.39;99975.23;1357110;95;22480;-61
2021/07/19 13:04:50;;;;;;;8.58;7.33;;;;;;;26.61;56.41;99969.26;1346343;96;21518;-61
2021/07/19 13:07:32;;;;;;;17.13;7.97;;;;;;;26.61;56.52;99978.76;1349104;96;21763;-65
2021/07/19 13:10:10;;;;;;;10.05;6.72;;;;;;;26.60;56.64;99974.42;1365658;96;22011;-61
2021/07/19 13:12:39;;;;;;;13.38;7.42;;;;;;;26.63;56.76;99965.75;1360960;94;21703;-61
2021/07/19 13:15:07;;;;;;;9.13;7.17;;;;;;;26.62;56.52;99958.16;1393925;94;21600;-60
2021/07/19 13:17:38;;;;;;;7.72;6.87;;;;;;;26.63;56.81;99957.06;1392098;94;21725;-60
2021/07/19 13:20:09;;;;;;;12.78;6.75;;;;;;;26.63;56.59;99952.99;1397551;94;21548;-61
2021/07/19 13:22:39;;;;;;;11.90;7.08;;;;;;;26.63;56.33;99941.33;1392427;94;21630;-61
2021/07/19 13:25:21;;;;;;;10.85;7.03;;;;;;;26.62;56.43;99943.23;1402875;94;21541;-62
2021/07/19 13:27:49;;;;;;;8.68;6.95;;;;;;;26.63;56.31;99933.19;1399275;94;21541;-62
2021/07/19 13:30:19;;;;;;;7.25;6.53;;;;;;;26.61;56.32;99932.63;1400762;94;21695;-61
2021/07/19 13:32:45;;;;;;;;;;;;;;;26.59;55.78;99921.23;1399650;94;21732;-62
2021/07/19 13:35:15;;;;;;;8.93;7.12;;;;;;;26.58;55.65;99922.30;1385445;94;20762;-60
2021/07/19 13:37:52;;;;;;;8.68;6.40;;;;;;;26.60;55.57;99903.87;1388248;94;21673;-61
2021/07/19 13:40:22;;;;;;;8.45;6.45;;;;;;;26.61;55.47;99913.08;1389472;94;21548;-62
2021/07/19 13:42:53;;;;;;;8.48;6.20;;;;;;;26.59;55.57;99922.59;1401584;94;21578;-62
2021/07/19 13:45:24;;;;;;;11.40;6.28;;;;;;;26.58;55.58;99925.83;1390976;94;21555;-62
2021/07/19 13:47:51;;;;;;;11.90;6.72;;;;;;;26.59;55.63;99934.81;1395198;94;21511;-63
2021/07/19 13:50:19;;;;;;;7.78;5.60;;;;;;;26.60;55.59;99930.45;1391780;94;21474;-63
2021/07/19 13:52:48;;;;;;;6.67;5.35;;;;;;;26.62;55.48;99932.92;1377904;94;21540;-61
2021/07/19 13:55:19;;;;;;;5.85;5.25;;;;;;;26.63;55.45;99931.28;1399451;94;21674;-62
2021/07/19 13:57:46;;;;;;;6.28;5.15;;;;;;;26.65;55.43;99933.74;1403555;94;21615;-61
2021/07/19 14:00:16;;;;;;;9.08;5.53;;;;;;;26.67;55.36;99923.41;1390617;94;21466;-62
2021/07/19 14:02:42;;;;;;;6.72;6.00;;;;;;;26.68;55.35;99908.78;1398648;93;22650;-63
